Time;durP1;ratioP1;P1;durP2;ratioP2;P2;SDS_P1;SDS_P2;PMS_P1;PMS_P2;Temp;Humidity;BMP_temperature;BMP_pressure;BME280_temperature;BME280_humidity;BME280_pressure;Samples;Min_cycle;Max_cycle;Signal;HPM_P1;HPM_P2
2021/01/06 00:00:29;;;;;;;8.23;5.07;;;;;;;2.71;99.43;100668.06;4998896;28;20058;-67
2021/01/06 00:02:56;;;;;;;12.27;5.53;;;;;;;2.56;99.72;100677.09;5016741;28;20050;-69
2021/01/06 00:05:25;;;;;;;13.18;6.28;;;;;;;2.58;99.99;100667.53;5001997;28;20281;-67
2021/01/06 00:07:52;;;;;;;11.15;5.70;;;;;;;2.67;100.00;100663.84;5016942;28;20053;-69
2021/01/06 00:10:22;;;;;;;13.13;5.45;;;;;;;2.57;100.00;100676.22;5021735;28;20358;-68
2021/01/06 00:12:49;;;;;;;12.27;5.18;;;;;;;2.61;99.97;100671.78;5014838;28;20053;-67
2021/01/06 00:15:20;;;;;;;8.43;5.50;;;;;;;2.64;99.66;100663.91;5005676;28;20059;-66
2021/01/06 00:17:46;;;;;;;18.45;5.63;;;;;;;2.63;100.00;100670.00;5018237;28;20129;-70
2021/01/06 00:20:15;;;;;;;10.90;5.25;;;;;;;2.64;100.00;100672.56;5016950;28;20053;-68
2021/01/06 00:22:41;;;;;;;9.65;5.50;;;;;;;2.64;100.00;100663.91;5004831;28;20342;-69
2021/01/06 00:25:15;;;;;;;8.95;5.00;;;;;;;2.61;100.00;100661.38;5003026;28;20152;-68
2021/01/06 00:27:42;;;;;;;10.70;4.93;;;;;;;2.48;100.00;100663.47;5005739;28;20053;-69
2021/01/06 00:30:20;;;;;;;9.93;5.88;;;;;;;2.57;100.00;100659.75;5017108;28;20176;-69
2021/01/06 00:32:47;;;;;;;10.40;5.57;;;;;;;2.53;100.00;100662.44;5020556;28;20050;-68
2021/01/06 00:35:13;;;;;;;8.75;5.22;;;;;;;2.56;100.00;100658.03;5014992;28;20069;-70
2021/01/06 00:37:40;;;;;;;11.60;5.60;;;;;;;2.51;100.00;100660.75;5015256;28;20052;-69
2021/01/06 00:40:07;;;;;;;10.27;5.30;;;;;;;2.50;100.00;100664.25;5020332;28;20050;-68
2021/01/06 00:42:35;;;;;;;9.68;5.18;;;;;;;2.56;100.00;100652.84;5021014;28;20059;-68
2021/01/06 00:45:07;;;;;;;10.82;5.40;;;;;;;2.56;100.00;100658.03;4986694;28;20053;-68
2021/01/06 00:47:34;;;;;;;8.13;5.00;;;;;;;2.53;100.00;100652.06;5018544;28;20518;-69
2021/01/06 00:50:02;;;;;;;10.52;5.32;;;;;;;2.55;100.00;100652.00;5021176;28;20050;-68
2021/01/06 00:52:28;;;;;;;8.45;4.80;;;;;;;2.63;100.00;100649.22;5018401;28;20046;-70
2021/01/06 00:54:55;;;;;;;8.77;4.60;;;;;;;2.65;100.00;100657.81;5019902;28;20526;-67
2021/01/06 00:57:22;;;;;;;8.18;4.75;;;;;;;2.45;100.00;100651.38;5015704;28;20085;-68
2021/01/06 00:59:48;;;;;;;7.43;4.38;;;;;;;2.45;100.00;100651.38;5019814;28;20048;-69
2021/01/06 01:02:15;;;;;;;8.20;4.65;;;;;;;2.42;100.00;100648.84;5020279;28;20113;-69
2021/01/06 01:04:42;;;;;;;7.78;4.70;;;;;;;2.47;100.00;100652.19;5019489;28;20069;-67
2021/01/06 01:07:09;;;;;;;7.35;4.93;;;;;;;2.54;100.00;100645.94;5021652;28;20042;-66
2021/01/06 01:09:35;;;;;;;11.32;4.32;;;;;;;2.42;100.00;100643.66;5017186;28;20491;-67
2021/01/06 01:12:05;;;;;;;11.38;3.65;;;;;;;2.50;100.00;100636.53;5017470;28;20541;-67
2021/01/06 01:14:32;;;;;;;8.18;3.97;;;;;;;2.39;100.00;100638.56;5021198;28;20064;-68
2021/01/06 01:17:01;;;;;;;6.45;4.13;;;;;;;2.60;100.00;100623.28;5017522;28;20483;-68
2021/01/06 01:19:27;;;;;;;6.80;4.35;;;;;;;2.57;99.70;100631.16;5019834;28;20045;-68
2021/01/06 01:21:54;;;;;;;5.68;3.60;;;;;;;2.52;100.00;100631.28;5019149;28;20049;-69
2021/01/06 01:24:21;;;;;;;6.65;3.40;;;;;;;2.56;99.96;100626.88;5019697;28;20073;-67
2021/01/06 01:26:51;;;;;;;5.85;3.28;;;;;;;2.62;100.00;100621.53;5015522;28;20058;-67
2021/01/06 01:29:19;;;;;;;6.20;3.15;;;;;;;2.62;100.00;100621.53;5020434;28;20050;-69
2021/01/06 01:31:47;;;;;;;3.22;2.72;;;;;;;2.46;99.41;100608.06;5004415;28;20100;-67
2021/01/06 01:34:13;;;;;;;4.18;2.78;;;;;;;2.39;99.42;100619.53;5003599;28;20067;-66
2021/01/06 01:36:47;;;;;;;5.25;2.47;;;;;;;2.36;99.86;100615.25;5022877;28;20056;-66
2021/01/06 01:39:14;;;;;;;8.13;2.75;;;;;;;2.38;99.80;100610.00;5025755;28;20072;-67
2021/01/06 01:41:41;;;;;;;5.05;2.78;;;;;;;2.45;100.00;100611.56;5024257;28;20781;-66
2021/01/06 01:44:11;;;;;;;4.55;2.72;;;;;;;2.51;100.00;100606.19;5018371;28;20053;-66
2021/01/06 01:46:59;;;;;;;9.25;3.58;;;;;;;2.56;99.18;100600.88;5023255;28;20512;-67
2021/01/06 01:49:29;;;;;;;4.00;2.47;;;;;;;2.41;99.42;100602.13;5001502;28;20042;-67
2021/01/06 01:52:03;;;;;;;3.47;2.33;;;;;;;2.32;99.33;100592.81;5018558;28;20049;-69
2021/01/06 01:54:30;;;;;;;4.65;2.35;;;;;;;2.41;100.00;100591.75;4982208;28;20045;-60
2021/01/06 01:57:05;;;;;;;5.70;2.30;;;;;;;2.38;100.00;100595.25;4968194;28;20050;-61
2021/01/06 01:59:42;;;;;;;3.80;2.60;;;;;;;2.46;100.00;100592.47;4969024;28;20051;-60
2021/01/06 02:02:15;;;;;;;4.25;2.65;;;;;;;2.50;99.88;100591.50;4962656;28;20138;-61
2021/01/06 02:04:46;;;;;;;4.75;2.28;;;;;;;2.61;99.22;100588.59;4966876;28;20547;-59
2021/01/06 02:07:18;;;;;;;4.28;2.58;;;;;;;2.59;100.00;100590.41;4971399;28;20133;-61
2021/01/06 02:09:52;;;;;;;4.80;2.85;;;;;;;2.47;99.44;100584.63;4973861;28;20077;-60
2021/01/06 02:12:30;;;;;;;3.97;2.70;;;;;;;2.42;99.79;100593.44;4986432;28;20089;-62
2021/01/06 02:15:04;;;;;;;4.13;2.15;;;;;;;2.39;98.89;100580.56;4980644;28;20050;-61
2021/01/06 02:17:31;;;;;;;3.97;2.20;;;;;;;2.41;99.17;100583.94;4961500;28;20097;-59
2021/01/06 02:19:58;;;;;;;3.10;1.90;;;;;;;2.28;99.08;100581.66;4969641;28;20137;-62
2021/01/06 02:22:24;;;;;;;3.13;2.15;;;;;;;2.22;98.87;100580.97;4984202;28;20420;-61
2021/01/06 02:24:52;;;;;;;3.40;1.77;;;;;;;2.42;98.82;100580.44;4968475;28;20160;-58
2021/01/06 02:27:20;;;;;;;3.47;1.75;;;;;;;2.37;97.85;100571.94;4968283;28;20051;-59
2021/01/06 02:29:46;;;;;;;3.67;2.10;;;;;;;2.38;99.08;100576.22;4966724;28;20042;-60
2021/01/06 02:32:14;;;;;;;3.63;2.38;;;;;;;2.34;98.93;100569.41;4963120;28;20059;-59
2021/01/06 02:34:41;;;;;;;2.72;1.85;;;;;;;2.38;99.34;100565.84;4966692;28;20525;-60
2021/01/06 02:37:09;;;;;;;4.05;1.75;;;;;;;2.49;98.74;100559.47;4967539;28;20046;-61
2021/01/06 02:39:35;;;;;;;3.03;1.67;;;;;;;2.46;98.57;100553.50;4971687;28;20410;-59
2021/01/06 02:42:02;;;;;;;3.22;1.90;;;;;;;2.50;98.97;100549.94;4972636;28;20400;-62
2021/01/06 02:44:29;;;;;;;2.78;1.95;;;;;;;2.51;98.71;100552.47;4966848;28;20059;-60
2021/01/06 02:46:57;;;;;;;3.15;1.85;;;;;;;2.36;98.39;100550.28;4964598;28;20141;-61
2021/01/06 02:49:24;;;;;;;2.63;1.80;;;;;;;2.29;99.41;100548.75;4967258;28;20058;-59
2021/01/06 02:51:55;;;;;;;2.60;1.80;;;;;;;2.31;99.14;100549.56;4965565;28;20508;-61
2021/01/06 02:54:28;;;;;;;2.60;1.48;;;;;;;2.34;99.04;100548.63;4965614;28;20551;-60
2021/01/06 02:56:57;;;;;;;3.60;1.80;;;;;;;2.47;99.21;100539.59;4968540;28;20046;-61
2021/01/06 02:59:28;;;;;;;3.78;2.13;;;;;;;2.46;98.67;100538.75;4963812;28;20533;-61
2021/01/06 03:01:55;;;;;;;4.47;2.10;;;;;;;2.42;99.06;100531.94;4977602;28;20298;-60
2021/01/06 03:04:23;;;;;;;3.90;2.10;;;;;;;2.46;98.40;100543.09;4969496;28;20046;-63
2021/01/06 03:06:57;;;;;;;3.65;1.63;;;;;;;2.20;99.40;100533.41;4971082;28;20082;-60
2021/01/06 03:09:33;;;;;;;2.22;1.67;;;;;;;2.26;99.99;100528.06;4970111;28;20069;-62
2021/01/06 03:12:11;;;;;;;3.03;1.92;;;;;;;2.30;100.00;100519.28;4982194;28;20070;-60
2021/01/06 03:14:39;;;;;;;3.30;1.67;;;;;;;2.32;99.26;100532.22;4980203;28;20051;-61
2021/01/06 03:17:07;;;;;;;2.33;1.45;;;;;;;2.19;99.18;100523.91;4966096;28;20051;-61
2021/01/06 03:19:36;;;;;;;2.92;1.73;;;;;;;2.09;99.94;100517.25;4976871;28;20145;-62
2021/01/06 03:22:05;;;;;;;4.75;1.40;;;;;;;2.15;100.00;100520.53;4968763;28;20055;-63
2021/01/06 03:24:35;;;;;;;3.13;1.77;;;;;;;2.27;99.98;100514.19;4969302;28;20317;-62
2021/01/06 03:27:02;;;;;;;1.85;1.50;;;;;;;1.98;99.42;100510.59;4964060;28;20432;-61
2021/01/06 03:29:30;;;;;;;2.58;1.50;;;;;;;1.99;100.00;100509.69;4965499;28;20047;-59
2021/01/06 03:32:00;;;;;;;1.83;1.50;;;;;;;2.09;100.00;100506.88;4964603;28;20134;-61
2021/01/06 03:34:33;;;;;;;2.20;1.45;;;;;;;1.92;100.00;100515.09;4961360;28;20055;-56
2021/01/06 03:37:05;;;;;;;1.75;1.30;;;;;;;1.88;100.00;100513.44;4973613;28;20146;-63
2021/01/06 03:39:38;;;;;;;3.53;1.38;;;;;;;1.91;100.00;100514.22;4977005;28;20054;-61
2021/01/06 03:42:05;;;;;;;2.25;1.42;;;;;;;1.90;100.00;100507.34;4958888;28;20059;-58
2021/01/06 03:44:32;;;;;;;2.25;1.58;;;;;;;1.80;100.00;100511.03;4964913;28;20054;-61
2021/01/06 03:47:11;;;;;;;1.98;1.20;;;;;;;1.94;100.00;100515.91;4982353;28;20059;-59
2021/01/06 03:49:46;;;;;;;2.55;1.17;;;;;;;1.85;100.00;100510.94;4961407;28;20117;-60
2021/01/06 03:52:47;;;;;;;2.38;1.20;;;;;;;2.05;100.00;100507.84;4964561;28;20046;-60
2021/01/06 03:55:24;;;;;;;2.45;1.70;;;;;;;2.06;100.00;100507.78;4965377;28;20154;-60
2021/01/06 03:57:53;;;;;;;2.15;1.35;;;;;;;1.95;100.00;100507.22;4964314;28;20514;-59
2021/01/06 04:00:44;;;;;;;1.38;0.70;;;;;;;1.77;100.00;100508.53;4964619;28;20093;-60
2021/01/06 04:03:19;;;;;;;2.33;1.42;;;;;;;1.92;100.00;100508.13;4961761;28;20139;-59
2021/01/06 04:05:46;;;;;;;1.67;1.00;;;;;;;1.81;100.00;100502.38;4975173;28;20543;-61
2021/01/06 04:08:16;;;;;;;1.63;1.13;;;;;;;1.76;100.00;100502.50;4957402;28;20057;-59
2021/01/06 04:10:49;;;;;;;1.92;1.15;;;;;;;1.83;100.00;100500.59;4963979;28;20054;-61
2021/01/06 04:13:16;;;;;;;1.63;1.08;;;;;;;1.74;100.00;100506.00;4975525;28;20138;-60
2021/01/06 04:15:43;;;;;;;1.27;0.95;;;;;;;1.60;100.00;100497.72;4964093;28;20058;-62
2021/01/06 04:18:10;;;;;;;3.20;1.30;;;;;;;1.67;100.00;100494.09;4960269;28;20055;-61
2021/01/06 04:20:38;;;;;;;1.30;1.02;;;;;;;1.77;100.00;100488.63;4965944;28;20152;-65
2021/01/06 04:23:07;;;;;;;1.80;1.02;;;;;;;1.70;100.00;100492.25;4947612;28;20218;-62
2021/01/06 04:25:36;;;;;;;1.48;1.10;;;;;;;1.72;100.00;100497.41;4970476;28;20055;-57
2021/01/06 04:28:10;;;;;;;1.63;1.02;;;;;;;1.81;100.00;100493.75;4963621;28;20069;-60
2021/01/06 04:30:44;;;;;;;1.63;0.80;;;;;;;1.80;100.00;100481.63;4971728;28;20051;-61
2021/01/06 04:33:18;;;;;;;1.25;0.73;;;;;;;1.83;100.00;100481.56;4963957;28;20059;-60
2021/01/06 04:35:45;;;;;;;1.98;0.90;;;;;;;1.78;100.00;100486.88;4969391;28;20046;-61
2021/01/06 04:38:21;;;;;;;1.83;1.05;;;;;;;1.84;100.00;100478.06;4966346;28;20055;-59
2021/01/06 04:40:50;;;;;;;2.55;1.15;;;;;;;1.88;100.00;100477.97;4971398;28;20051;-61
2021/01/06 04:43:29;;;;;;;1.50;0.98;;;;;;;1.78;100.00;100481.69;4974808;28;20054;-60
2021/01/06 04:46:31;;;;;;;1.80;1.23;;;;;;;1.72;100.00;100477.50;4960669;28;20562;-62
2021/01/06 04:49:06;;;;;;;1.67;1.15;;;;;;;1.78;100.00;100473.91;4963753;28;20055;-58
2021/01/06 04:51:50;;;;;;;1.90;1.08;;;;;;;1.62;100.00;100476.03;4964315;28;20051;-61
2021/01/06 04:54:41;;;;;;;1.73;1.08;;;;;;;1.56;100.00;100483.94;4963484;28;20050;-60
2021/01/06 04:57:19;;;;;;;0.88;0.63;;;;;;;1.63;100.00;100472.53;4966509;28;20530;-59
2021/01/06 04:59:54;;;;;;;0.93;0.57;;;;;;;1.44;99.84;100482.53;4962593;28;20101;-62
2021/01/06 05:02:56;;;;;;;1.13;0.60;;;;;;;1.60;100.00;100482.13;4964702;28;20064;-57
2021/01/06 05:05:34;;;;;;;1.25;0.63;;;;;;;1.45;100.00;100476.44;4971506;28;20039;-58
2021/01/06 05:08:10;;;;;;;0.77;0.55;;;;;;;1.57;100.00;100474.41;4980213;28;20054;-60
2021/01/06 05:10:44;;;;;;;2.17;0.60;;;;;;;1.66;100.00;100467.25;4962578;28;20725;-59
2021/01/06 05:13:32;;;;;;;0.77;0.60;;;;;;;1.73;100.00;100473.16;4958915;28;21800;-61
2021/01/06 05:16:04;;;;;;;2.67;0.90;;;;;;;1.75;100.00;100468.78;4983895;28;20093;-62
2021/01/06 05:18:31;;;;;;;1.10;0.70;;;;;;;1.77;100.00;100469.59;4971812;28;20055;-60
2021/01/06 05:20:58;;;;;;;1.65;0.70;;;;;;;1.70;100.00;100468.88;4974314;28;20146;-58
2021/01/06 05:23:28;;;;;;;0.90;0.60;;;;;;;1.69;100.00;100463.75;4963845;28;20066;-59
2021/01/06 05:25:58;;;;;;;1.05;0.80;;;;;;;1.61;100.00;100469.13;4972520;28;20058;-59
2021/01/06 05:28:25;;;;;;;1.23;0.77;;;;;;;1.72;99.90;100468.88;4986128;28;20055;-60
2021/01/06 05:30:54;;;;;;;2.00;0.52;;;;;;;1.66;99.83;100471.59;4986651;28;20047;-57
2021/01/06 05:33:27;;;;;;;1.33;0.70;;;;;;;1.62;99.61;100465.66;4980752;28;20638;-58
2021/01/06 05:35:54;;;;;;;1.63;0.70;;;;;;;1.54;100.00;100467.59;4978042;28;20468;-60
2021/01/06 05:38:21;;;;;;;2.10;0.52;;;;;;;1.64;99.77;100469.06;4975071;28;20049;-57
2021/01/06 05:40:48;;;;;;;1.30;0.70;;;;;;;1.49;100.00;100472.03;4988175;28;20547;-60
2021/01/06 05:43:17;;;;;;;1.48;0.80;;;;;;;1.55;99.89;100461.50;4968673;28;20086;-57
2021/01/06 05:45:53;;;;;;;1.67;0.60;;;;;;;1.51;99.59;100465.91;4971330;28;20130;-55
2021/01/06 05:48:21;;;;;;;;;;;;;;;1.62;100.00;100457.00;4963681;28;20536;-57
2021/01/06 05:51:06;;;;;;;0.90;0.60;;;;;;;1.61;99.99;100463.09;4986266;28;19922;-56
2021/01/06 05:53:57;;;;;;;0.90;0.50;;;;;;;1.53;99.30;100465.84;4973151;28;20055;-59
2021/01/06 05:56:30;;;;;;;2.15;0.90;;;;;;;1.49;99.55;100462.50;4977168;28;20142;-62
2021/01/06 05:59:03;;;;;;;1.10;0.70;;;;;;;1.60;99.85;100451.84;4985919;28;20071;-62
2021/01/06 06:01:39;;;;;;;1.17;0.60;;;;;;;1.54;99.59;100453.75;4972934;28;21006;-58
2021/01/06 06:04:08;;;;;;;;;;;;;;;1.62;99.51;100452.69;4965705;28;20456;-59
2021/01/06 06:06:53;;;;;;;1.08;0.70;;;;;;;1.38;99.33;100448.09;4968642;28;19946;-59
2021/01/06 06:09:38;;;;;;;2.67;0.85;;;;;;;1.30;100.00;100453.44;4965129;28;20141;-59
2021/01/06 06:12:30;;;;;;;3.40;1.10;;;;;;;1.33;100.00;100452.53;4986850;28;20105;-60
2021/01/06 06:15:09;;;;;;;1.77;1.13;;;;;;;1.50;100.00;100445.19;4969381;28;20231;-60
2021/01/06 06:17:44;;;;;;;1.05;0.80;;;;;;;1.48;100.00;100450.41;4967338;28;20055;-61
2021/01/06 06:20:19;;;;;;;2.72;1.50;;;;;;;1.52;99.80;100446.00;4966127;28;20255;-59
2021/01/06 06:23:23;;;;;;;1.45;0.80;;;;;;;1.39;99.68;100450.63;4980977;28;20076;-60
2021/01/06 06:26:06;;;;;;;1.33;1.20;;;;;;;1.44;99.78;100451.41;4967065;28;20160;-61
2021/01/06 06:28:37;;;;;;;3.80;0.75;;;;;;;1.29;99.47;100451.75;4963302;28;20055;-58
2021/01/06 06:31:30;;;;;;;1.10;0.80;;;;;;;1.10;99.52;100446.13;4959433;28;20146;-60
2021/01/06 06:34:00;;;;;;;1.58;0.90;;;;;;;1.07;100.00;100450.53;4978761;28;20541;-59
2021/01/06 06:36:30;;;;;;;1.42;0.95;;;;;;;1.14;100.00;100452.13;4970127;28;20047;-62
2021/01/06 06:39:01;;;;;;;12.50;1.15;;;;;;;1.21;100.00;100451.91;4970715;28;20089;-59
2021/01/06 06:41:31;;;;;;;14.27;1.15;;;;;;;1.21;99.99;100451.91;4968964;28;20138;-57
2021/01/06 06:44:25;;;;;;;18.38;1.63;;;;;;;1.05;100.00;100450.59;4961669;28;20058;-57
2021/01/06 06:47:14;;;;;;;34.88;2.20;;;;;;;1.06;100.00;100444.50;4965406;28;20067;-58
2021/01/06 06:49:52;;;;;;;18.27;1.55;;;;;;;1.09;100.00;100452.22;4965649;28;20607;-62
2021/01/06 06:52:35;;;;;;;7.75;1.00;;;;;;;1.15;100.00;100443.44;4967178;28;20047;-58
2021/01/06 06:55:43;;;;;;;6.40;0.88;;;;;;;1.13;100.00;100440.03;4968415;28;20058;-61
2021/01/06 06:58:33;;;;;;;14.70;1.80;;;;;;;1.22;100.00;100440.69;4956387;28;20507;-57
2021/01/06 07:01:05;;;;;;;6.90;1.33;;;;;;;1.17;99.64;100445.13;4964748;28;20054;-58
2021/01/06 07:03:35;;;;;;;3.38;1.60;;;;;;;0.84;100.00;100438.94;4965442;28;20533;-60
2021/01/06 07:06:02;;;;;;;17.08;3.75;;;;;;;0.93;100.00;100450.84;4961422;28;20051;-59
2021/01/06 07:08:45;;;;;;;12.00;2.50;;;;;;;0.93;100.00;100448.25;4964797;28;20046;-62
2021/01/06 07:11:21;;;;;;;8.13;1.88;;;;;;;1.10;100.00;100445.28;4959423;28;20552;-59
2021/01/06 07:14:30;;;;;;;29.50;3.20;;;;;;;1.02;99.80;100448.03;4952087;28;20055;-62
2021/01/06 07:17:39;;;;;;;12.65;2.70;;;;;;;1.04;99.91;100445.41;4955969;28;20145;-61
2021/01/06 07:20:10;;;;;;;5.93;2.05;;;;;;;0.92;100.00;100450.00;4959254;28;20066;-61
2021/01/06 07:22:40;;;;;;;22.92;2.35;;;;;;;0.88;100.00;100450.09;4959940;28;20055;-64
2021/01/06 07:25:26;;;;;;;8.00;1.75;;;;;;;0.82;100.00;100445.91;4953453;28;20042;-62
2021/01/06 07:27:58;;;;;;;3.53;1.77;;;;;;;0.80;100.00;100447.66;4970225;28;20055;-58
2021/01/06 07:30:35;;;;;;;11.55;1.95;;;;;;;0.81;100.00;100453.69;4958602;28;20067;-56
2021/01/06 07:33:25;;;;;;;2.75;1.45;;;;;;;0.73;100.00;100444.38;4957172;28;20077;-60
2021/01/06 07:35:52;;;;;;;3.63;2.00;;;;;;;0.94;100.00;100450.81;4954801;28;20051;-56
2021/01/06 07:38:19;;;;;;;6.35;1.80;;;;;;;1.01;100.00;100447.19;4958379;28;20939;-57
2021/01/06 07:40:55;;;;;;;21.30;3.10;;;;;;;1.05;100.00;100447.13;4957260;28;20069;-60
2021/01/06 07:43:28;;;;;;;6.63;1.92;;;;;;;0.90;100.00;100450.91;4953640;28;20146;-57
2021/01/06 07:45:58;;;;;;;18.20;2.15;;;;;;;1.19;100.00;100456.28;4954912;28;20059;-61
2021/01/06 07:48:43;;;;;;;8.45;2.50;;;;;;;1.00;100.00;100447.25;4956482;28;20054;-58
2021/01/06 07:51:24;;;;;;;9.63;1.77;;;;;;;1.13;100.00;100455.59;4953605;28;20420;-57
2021/01/06 07:54:03;;;;;;;10.15;2.50;;;;;;;1.04;100.00;100453.19;4962399;28;20090;-59
2021/01/06 07:57:03;;;;;;;4.80;1.73;;;;;;;0.91;100.00;100450.88;4967658;28;21016;-55
2021/01/06 07:59:54;;;;;;;9.00;2.03;;;;;;;0.95;100.00;100446.50;4972692;28;20058;-49
2021/01/06 08:02:36;;;;;;;8.88;1.80;;;;;;;0.91;100.00;100452.63;4986277;28;20055;-54
2021/01/06 08:05:28;;;;;;;12.10;2.00;;;;;;;1.01;100.00;100451.53;4955441;28;20182;-52
2021/01/06 08:08:03;;;;;;;13.90;2.20;;;;;;;1.03;100.00;100449.75;4966514;28;20058;-52
2021/01/06 08:10:30;;;;;;;12.43;2.20;;;;;;;0.92;100.00;100451.75;4968151;28;20720;-52
2021/01/06 08:13:10;;;;;;;17.83;3.95;;;;;;;0.94;100.00;100445.63;4968529;28;20443;-53
2021/01/06 08:15:37;;;;;;;27.92;2.80;;;;;;;0.77;100.00;100439.97;4964311;28;20062;-55
2021/01/06 08:18:19;;;;;;;13.48;2.03;;;;;;;0.83;100.00;100442.44;4963590;28;20034;-53
2021/01/06 08:21:31;;;;;;;11.07;1.98;;;;;;;0.85;100.00;100444.97;4970112;28;20412;-52
2021/01/06 08:24:20;;;;;;;3.92;1.63;;;;;;;0.90;100.00;100443.13;4963011;28;20059;-52
2021/01/06 08:26:50;;;;;;;7.32;1.50;;;;;;;0.89;100.00;100452.66;4960954;28;20058;-50
2021/01/06 08:29:27;;;;;;;13.75;3.05;;;;;;;1.10;100.00;100451.31;4966989;28;20064;-56
2021/01/06 08:32:02;;;;;;;4.93;1.50;;;;;;;1.15;100.00;100451.22;4967967;28;20055;-51
2021/01/06 08:34:35;;;;;;;3.08;1.50;;;;;;;1.06;100.00;100460.06;4953885;28;20063;-51
2021/01/06 08:37:07;;;;;;;3.13;1.58;;;;;;;0.99;100.00;100466.25;4964726;28;20282;-54
2021/01/06 08:39:36;;;;;;;2.20;1.30;;;;;;;0.80;100.00;100458.03;4948241;28;20054;-53
2021/01/06 08:42:10;;;;;;;2.33;1.23;;;;;;;0.83;100.00;100462.31;4966496;28;20083;-53
2021/01/06 08:44:41;;;;;;;3.67;1.33;;;;;;;1.02;100.00;100456.66;4962376;28;20058;-53
2021/01/06 08:47:11;;;;;;;3.22;1.58;;;;;;;1.05;100.00;100460.09;4963810;28;20157;-54
2021/01/06 08:49:42;;;;;;;3.42;1.65;;;;;;;1.49;100.00;100462.50;4947015;28;20843;-54
2021/01/06 08:52:18;;;;;;;3.20;1.42;;;;;;;1.63;100.00;100461.31;4954528;28;20508;-56
2021/01/06 08:54:47;;;;;;;2.53;1.88;;;;;;;1.26;99.14;100468.25;4938189;28;20360;-53
2021/01/06 08:57:24;;;;;;;4.07;1.60;;;;;;;1.37;99.32;100457.59;4963987;28;20168;-53
2021/01/06 08:59:53;;;;;;;6.55;2.22;;;;;;;1.34;99.21;100462.84;4972944;28;20053;-52
2021/01/06 09:02:29;;;;;;;4.05;1.85;;;;;;;1.31;99.13;100469.88;4956478;28;20133;-55
2021/01/06 09:04:56;;;;;;;4.30;1.63;;;;;;;1.35;99.24;100468.88;4953326;28;20447;-54
2021/01/06 09:07:25;;;;;;;9.15;2.75;;;;;;;1.41;98.90;100472.22;4965095;28;20174;-53
2021/01/06 09:10:06;;;;;;;16.25;2.33;;;;;;;1.39;99.10;100461.00;4975033;28;20047;-52
2021/01/06 09:12:41;;;;;;;7.07;2.00;;;;;;;1.18;99.30;100472.75;4961766;28;20516;-54
2021/01/06 09:15:31;;;;;;;4.70;1.80;;;;;;;1.08;99.73;100468.66;4931371;28;20085;-53
2021/01/06 09:18:04;;;;;;;16.52;3.40;;;;;;;1.10;99.60;100469.47;4948136;28;20141;-55
2021/01/06 09:21:01;;;;;;;11.40;2.20;;;;;;;1.25;99.59;100466.50;4972764;28;20119;-54
2021/01/06 09:23:28;;;;;;;10.45;2.72;;;;;;;1.33;99.74;100470.69;4938655;28;20059;-58
2021/01/06 09:25:55;;;;;;;7.07;2.35;;;;;;;1.46;99.76;100469.50;4953142;28;20068;-50
2021/01/06 09:28:23;;;;;;;11.93;2.33;;;;;;;1.44;98.90;100469.56;4952905;28;20051;-56
2021/01/06 09:30:49;;;;;;;4.40;2.10;;;;;;;1.40;98.76;100474.84;4953827;28;20644;-57
2021/01/06 09:33:28;;;;;;;17.85;2.40;;;;;;;1.64;98.08;100469.06;4949756;28;20054;-53
2021/01/06 09:35:55;;;;;;;26.95;2.65;;;;;;;1.50;97.31;100464.22;4954491;28;20065;-54
2021/01/06 09:38:32;;;;;;;42.45;3.60;;;;;;;1.65;96.96;100462.13;4969405;28;20585;-54
2021/01/06 09:41:02;;;;;;;25.20;2.65;;;;;;;1.52;97.89;100464.16;4952614;28;20054;-53
2021/01/06 09:43:37;;;;;;;42.25;3.63;;;;;;;1.56;97.96;100462.34;4936835;28;20187;-53
2021/01/06 09:46:25;;;;;;;29.58;3.38;;;;;;;1.93;98.13;100452.72;4942421;28;20121;-53
2021/01/06 09:48:56;;;;;;;22.60;2.47;;;;;;;2.06;96.82;100445.47;4950973;28;20057;-53
2021/01/06 09:51:24;;;;;;;13.88;2.00;;;;;;;1.93;96.38;100455.31;4970434;28;20058;-54
2021/01/06 09:53:53;;;;;;;6.82;1.65;;;;;;;1.95;97.24;100450.13;4951822;28;20051;-57
2021/01/06 09:56:23;;;;;;;5.60;1.42;;;;;;;1.75;97.07;100451.47;4956632;28;20113;-52
2021/01/06 09:58:51;;;;;;;3.45;1.27;;;;;;;1.86;96.89;100452.94;4953871;28;20069;-55
2021/01/06 10:01:43;;;;;;;11.13;2.45;;;;;;;2.08;97.00;100450.66;4963224;28;20066;-56
2021/01/06 10:04:17;;;;;;;5.15;1.45;;;;;;;2.34;96.38;100452.50;4957349;28;20583;-55
2021/01/06 10:06:51;;;;;;;5.07;0.98;;;;;;;2.32;94.82;100449.97;4951532;28;20644;-56
2021/01/06 10:09:28;;;;;;;4.45;1.50;;;;;;;2.36;94.99;100445.53;4965734;28;20602;-55
2021/01/06 10:12:02;;;;;;;5.85;1.20;;;;;;;2.42;94.68;100446.19;4964954;28;20092;-55
2021/01/06 10:15:06;;;;;;;2.22;0.93;;;;;;;2.26;94.65;100437.16;4970459;28;20065;-55
2021/01/06 10:17:52;;;;;;;4.10;1.00;;;;;;;2.25;95.17;100431.13;4971562;28;20578;-54
2021/01/06 10:20:25;;;;;;;;;;;;;;;2.00;95.04;100424.88;4955426;28;20079;-54
2021/01/06 10:22:54;;;;;;;14.65;2.28;;;;;;;1.81;96.16;100413.28;4965693;28;19937;-55
2021/01/06 10:25:34;;;;;;;29.27;2.88;;;;;;;1.68;96.52;100418.78;4963703;28;20158;-53
2021/01/06 10:28:13;;;;;;;2.42;1.30;;;;;;;1.81;97.02;100419.31;4966001;28;20050;-54
2021/01/06 10:30:59;;;;;;;2.90;0.98;;;;;;;1.86;96.89;100419.19;4954317;28;20381;-55
2021/01/06 10:33:26;;;;;;;6.53;1.17;;;;;;;1.74;97.08;100415.19;4958824;28;20279;-56
2021/01/06 10:35:58;;;;;;;2.55;1.00;;;;;;;1.95;97.12;100417.22;4970982;28;20134;-54
2021/01/06 10:38:28;;;;;;;11.80;1.73;;;;;;;1.66;96.75;100423.16;4962643;28;20050;-54
2021/01/06 10:41:29;;;;;;;10.57;1.30;;;;;;;1.64;96.19;100419.75;4967190;28;20086;-54
2021/01/06 10:44:11;;;;;;;33.92;3.65;;;;;;;1.61;96.69;100413.78;4962756;28;20058;-52
2021/01/06 10:46:51;;;;;;;18.35;2.70;;;;;;;1.81;97.34;100405.50;4965838;28;20062;-57
2021/01/06 10:49:20;;;;;;;12.23;2.25;;;;;;;1.82;96.44;100402.84;4928563;28;20046;-55
2021/01/06 10:51:57;;;;;;;7.68;1.70;;;;;;;1.77;95.89;100400.38;4967767;28;20498;-57
2021/01/06 10:54:39;;;;;;;4.45;1.05;;;;;;;1.87;96.92;100395.78;4969776;28;20054;-53
2021/01/06 10:57:39;;;;;;;3.63;1.17;;;;;;;1.81;96.80;100395.13;4947285;28;20423;-54
2021/01/06 11:00:19;;;;;;;5.93;1.45;;;;;;;2.07;96.68;100391.78;4951717;28;20136;-56
2021/01/06 11:02:55;;;;;;;6.18;2.53;;;;;;;2.05;95.59;100391.00;4966312;28;20047;-53
2021/01/06 11:05:26;;;;;;;14.18;3.25;;;;;;;1.78;95.85;100388.25;4952496;28;20531;-56
2021/01/06 11:08:14;;;;;;;15.20;1.95;;;;;;;1.72;95.25;100386.69;4953362;28;20101;-56
2021/01/06 11:11:10;;;;;;;13.80;1.52;;;;;;;1.71;96.32;100382.38;4961138;28;20563;-56
2021/01/06 11:14:21;;;;;;;1.90;1.00;;;;;;;1.73;95.76;100377.16;4968196;28;20061;-57
2021/01/06 11:16:50;;;;;;;10.13;1.45;;;;;;;1.71;96.36;100374.59;4961482;28;20392;-54
2021/01/06 11:19:47;;;;;;;3.55;1.60;;;;;;;1.89;95.95;100372.38;4940358;28;20137;-57
2021/01/06 11:22:21;;;;;;;2.50;1.17;;;;;;;1.86;94.73;100378.53;4958671;28;20227;-57
2021/01/06 11:25:03;;;;;;;13.15;1.40;;;;;;;1.70;95.07;100374.63;4948376;28;20063;-57
2021/01/06 11:27:51;;;;;;;11.65;1.50;;;;;;;1.58;95.80;100386.19;4960821;28;20537;-58
2021/01/06 11:30:31;;;;;;;12.90;1.30;;;;;;;1.71;95.84;100377.19;4948421;28;20043;-53
2021/01/06 11:33:18;;;;;;;3.00;1.20;;;;;;;1.81;95.36;100372.59;4961987;28;20078;-57
2021/01/06 11:35:56;;;;;;;11.30;1.83;;;;;;;1.82;94.53;100376.91;4954998;28;20126;-55
2021/01/06 11:38:39;;;;;;;3.22;1.13;;;;;;;1.92;94.68;100369.72;4965259;28;20085;-54
2021/01/06 11:41:10;;;;;;;8.00;1.50;;;;;;;1.88;95.22;100362.91;4961555;28;20793;-59
2021/01/06 11:44:14;;;;;;;1.83;1.13;;;;;;;1.71;94.78;100356.44;4961525;28;20069;-57
2021/01/06 11:47:10;;;;;;;16.58;1.48;;;;;;;1.64;94.84;100354.88;4969708;28;20042;-58
2021/01/06 11:49:37;;;;;;;27.23;11.40;;;;;;;1.83;96.61;100355.22;4955856;28;20057;-50
2021/01/06 11:52:24;;;;;;;6.38;1.67;;;;;;;1.94;93.80;100349.78;4952900;28;20154;-56
2021/01/06 11:54:57;;;;;;;5.97;1.45;;;;;;;1.80;93.70;100350.13;4960588;28;20059;-55
2021/01/06 11:57:50;;;;;;;3.38;1.35;;;;;;;1.80;93.71;100339.75;4944212;28;20046;-54
2021/01/06 12:00:23;;;;;;;2.85;0.90;;;;;;;1.92;94.23;100347.19;4954500;28;20280;-56
2021/01/06 12:03:02;;;;;;;13.20;2.78;;;;;;;2.10;93.54;100342.38;4957916;28;20190;-55